Terminal Aerodrome Forecast
Issued by NWS Duluth, MN

Home | Current Version | Previous Version | Text Only | Print | Product List | Glossary On
Versions: 1 2 3 4 5 6 7 8 9 10 11 12 13 14 15 16 17 18
397
FTUS43 KDLH 260530
TAFINL
TAF
KINL 260530Z 2606/2706 00000KT P6SM SCT070
      TEMPO 2608/2612 2SM BR SCT005
     FM261400 24007KT P6SM SCT050
     FM270000 18004KT P6SM SCT080 BKN250=

USA.gov is the U.S. government's official web portal to all federal, state and local government web resources and services.